WetterOnline ( https://www.wetteronline.de )

Wetter aktuell Trossin

Aktuelles Wetter: Wittenberg (106m)

6-stündlich | Neueste Meldungen
Ortszeit Temperatur Wetter
Mi, 21.10. 8:00 9.6° C bedeckt
Mi, 21.10. 2:00 9.6° C bewölkt
Di, 20.10. 20:00 11.8° C leichter Regen
Di, 20.10. 14:00 11.3° C bedeckt
Di, 20.10. 8:00 4.3° C bedeckt
Di, 20.10. 2:00 4.8° C wolkig
Mo, 19.10. 20:00 7.8° C leicht bewölkt
Mo, 19.10. 14:00 12.1° C leicht bewölkt
Ortszeit Temperatur Wetter
Mi, 21.10. 12:10 11.6° C wolkig
Mi, 21.10. 12:00 11.2° C bedeckt
Mi, 21.10. 11:50 11.2° C bedeckt
Mi, 21.10. 11:40 10.9° C bedeckt
Mi, 21.10. 11:30 10.7° C bedeckt
Mi, 21.10. 11:20 10.7° C bedeckt
Mi, 21.10. 11:00 10.5° C bedeckt
Mi, 21.10. 10:30 10.3° C leichter Regen
Mi, 21.10. 10:00 10.0° C Regen
Ortszeit Relative Feuchte Sichtweite
Mi, 21.10. 8:00 93% 14 km
Mi, 21.10. 2:00 97% 17 km
Di, 20.10. 20:00 78% 15 km
Di, 20.10. 14:00 71% 30 km
Di, 20.10. 8:00 97% 4.6 km
Di, 20.10. 2:00 95% 9 km
Mo, 19.10. 20:00 95% 14 km
Mo, 19.10. 14:00 67% 35 km
Ortszeit Relative Feuchte Sichtweite
Mi, 21.10. 12:10 83% -
Mi, 21.10. 12:00 88% 18 km
Mi, 21.10. 11:50 88% -
Mi, 21.10. 11:40 89% -
Mi, 21.10. 11:30 92% 13 km
Mi, 21.10. 11:20 92% -
Mi, 21.10. 11:00 92% 11 km
Mi, 21.10. 10:30 93% 9 km
Mi, 21.10. 10:00 93% 10 km
Ortszeit Niederschlagsmenge Niederschlagsart
Mi, 21.10. 8:00 7 l/m2 in 12 Std. Regen
Mi, 21.10. 2:00 3 l/m2 in 6 Std. Regen
Di, 20.10. 20:00 0.1 l/m2 in 12 Std. Regen
Di, 20.10. 14:00 0.0 l/m2 in 6 Std. -
Di, 20.10. 8:00 0.0 l/m2 in 12 Std. -
Di, 20.10. 2:00 0.0 l/m2 in 6 Std. -
Mo, 19.10. 20:00 1 l/m2 in 12 Std. Regen
Mo, 19.10. 14:00 0.0 l/m2 in 6 Std. -
Ortszeit Niederschlagsmenge Niederschlagsart
Mi, 21.10. 12:10 keine Meldung -
Mi, 21.10. 12:00 0.0 l/m2 in 1 Std. -
Mi, 21.10. 11:50 keine Meldung -
Mi, 21.10. 11:40 keine Meldung -
Mi, 21.10. 11:30 0.0 l/m2 in 1 Std. -
Mi, 21.10. 11:20 keine Meldung -
Mi, 21.10. 11:00 0.2 l/m2 in 1 Std. Regen
Mi, 21.10. 10:30 0.1 l/m2 in 1 Std. -
Mi, 21.10. 10:00 0.2 l/m2 in 1 Std. Regen
Ortszeit Stärke Spitze Richtung
km/h Bft. km/h Grad Sektor
Mi, 21.10. 8:00 11 2 18 130° SO
Mi, 21.10. 2:00 6 1 15 130° SO
Di, 20.10. 20:00 7 2 25 230° SW
Di, 20.10. 14:00 11 2 32 160° S
Di, 20.10. 8:00 11 2 22 130° SO
Di, 20.10. 2:00 7 2 11 100° O
Mo, 19.10. 20:00 6 1 20 120° SO
Mo, 19.10. 14:00 11 2 20 230° SW
Ortszeit Stärke Spitze Richtung
km/h Bft. km/h Grad Sektor
Mi, 21.10. 12:10 11 2 - 140° SO
Mi, 21.10. 12:00 11 2 18 130° SO
Mi, 21.10. 11:50 11 2 - 130° SO
Mi, 21.10. 11:40 11 2 - 130° SO
Mi, 21.10. 11:30 11 2 18 130° SO
Mi, 21.10. 11:20 11 2 - 130° SO
Mi, 21.10. 11:00 9 2 17 130° SO
Mi, 21.10. 10:30 9 2 13 130° SO
Mi, 21.10. 10:00 7 2 14 130° SO
Ortszeit Untergrenze Bedeckung Gattung
total tief tief mittel hoch
Mi, 21.10. 8:00 2400 m 8/8 8/8 - - -
Mi, 21.10. 2:00 2700 m 8/8 7/8 - - -
Di, 20.10. 20:00 900 m 7/8 7/8 - - -
Di, 20.10. 14:00 5100 m 8/8 8/8 - - -
Di, 20.10. 8:00 5700 m 8/8 8/8 - - -
Di, 20.10. 2:00 8100 m 8/8 0/8 - - -
Mo, 19.10. 20:00 1800 m 3/8 3/8 - - -
Mo, 19.10. 14:00 1050 m 3/8 5/8 - - -
Ortszeit Bedeckungsgrad in Achtel und Wolkenuntergrenze
Mi, 21.10. 12:10 3(1800m) 8(3600m) 8(4200m)
Mi, 21.10. 12:00 8(1800m) 8(2400m) 8(4200m)
Mi, 21.10. 11:50 8(1800m) 8(2400m)
Mi, 21.10. 11:40 8(2100m)
Mi, 21.10. 11:30 8(2100m)
Mi, 21.10. 11:20 8(2100m)
Mi, 21.10. 11:00 8(2100m)
Mi, 21.10. 10:30 2(2100m) 6(2700m) 8(4200m)
Mi, 21.10. 10:00 1(2100m) 7(3000m) 8(4200m)
Ortszeit Luftdruck NN (hPa) Tendenz (hPa in 3 Std.)
Mi, 21.10. 8:00 1011 - 1,2
Mi, 21.10. 2:00 1013 - 0,8
Di, 20.10. 20:00 1013 + 0,3
Di, 20.10. 14:00 1015 - 1,6
Di, 20.10. 8:00 1019 - 1,6
Di, 20.10. 2:00 1022 - 1,1
Mo, 19.10. 20:00 1022 - 0,4
Mo, 19.10. 14:00 1023 - 0,5
Ortszeit Luftdruck NN (hPa) Tendenz (hPa in 3 Std.)
Mi, 21.10. 12:10 1010 keine Meldung
Mi, 21.10. 12:00 1010 - 0,7
Mi, 21.10. 11:50 1010 keine Meldung
Mi, 21.10. 11:40 1010 keine Meldung
Mi, 21.10. 11:30 1010 - 0,8
Mi, 21.10. 11:20 1010 keine Meldung
Mi, 21.10. 11:00 1010 - 0,2
Mi, 21.10. 10:30 1011 + 0,2
Mi, 21.10. 10:00 1011 + 0,2
Ortszeit Schneehöhe (cm)
Mi, 21.10. 8:00 0
Mi, 21.10. 2:00 0
Di, 20.10. 20:00 0
Di, 20.10. 14:00 0
Di, 20.10. 8:00 0
Di, 20.10. 2:00 0
Mo, 19.10. 20:00 0
Mo, 19.10. 14:00 0
Ortszeit Schneehöhe (cm)
Mi, 21.10. 12:10 0
Mi, 21.10. 12:00 0
Mi, 21.10. 11:50 0
Mi, 21.10. 11:40 0
Mi, 21.10. 11:30 0
Mi, 21.10. 11:20 0
Mi, 21.10. 11:00 0
Mi, 21.10. 10:30 0
Mi, 21.10. 10:00 0
Link zu dieser Seite / Seite empfehlen

Das Wetter in ...